Time;durP1;ratioP1;P1;durP2;ratioP2;P2;SDS_P1;SDS_P2;PMS_P1;PMS_P2;Temp;Humidity;BMP_temperature;BMP_pressure;BME280_temperature;BME280_humidity;BME280_pressure;Samples;Min_cycle;Max_cycle;Signal;HPM_P1;HPM_P2
2022/06/27 00:02:00;;;;;;;;;;;18.50;99.90;;;;;;5087775;28;20249;-71
2022/06/27 00:04:27;;;;;;;;;;;18.50;99.90;;;;;;5087428;28;20323;-70
2022/06/27 00:06:53;;;;;;;;;;;18.40;99.90;;;;;;5088272;28;20393;-70
2022/06/27 00:09:20;;;;;;;;;;;18.40;99.90;;;;;;5088536;28;19928;-70
2022/06/27 00:11:47;;;;;;;;;;;18.40;99.90;;;;;;5087641;28;19924;-70
2022/06/27 00:14:14;;;;;;;;;;;18.30;99.90;;;;;;5087233;28;19962;-70
2022/06/27 00:16:41;;;;;;;;;;;18.30;99.90;;;;;;5087594;28;19995;-70
2022/06/27 00:19:10;;;;;;;;;;;18.30;99.90;;;;;;5094344;28;19928;-70
2022/06/27 00:21:36;;;;;;;;;;;18.30;99.90;;;;;;5087434;28;19936;-70
2022/06/27 00:24:03;;;;;;;;;;;18.30;99.90;;;;;;5072141;28;19928;-69
2022/06/27 00:26:30;;;;;;;;;;;18.30;99.90;;;;;;5085001;28;19936;-70
2022/06/27 00:28:57;;;;;;;;;;;18.30;99.90;;;;;;5086360;28;19924;-70
2022/06/27 00:31:23;;;;;;;;;;;18.20;99.90;;;;;;5087071;28;19928;-70
2022/06/27 00:33:50;;;;;;;;;;;18.10;99.90;;;;;;5088163;28;19928;-70
2022/06/27 00:36:18;;;;;;;;;;;18.10;99.90;;;;;;5086306;28;19931;-70
2022/06/27 00:38:45;;;;;;;;;;;18.10;99.90;;;;;;5091149;28;20632;-70
2022/06/27 00:41:11;;;;;;;;;;;18.70;99.90;;;;;;5089794;28;19931;-70
2022/06/27 00:43:38;;;;;;;;;;;18.10;99.90;;;;;;5091472;28;19928;-71
2022/06/27 00:46:05;;;;;;;;;;;18.50;99.90;;;;;;5091184;28;19932;-70
2022/06/27 00:48:32;;;;;;;;;;;18.00;99.90;;;;;;5091006;28;19928;-70
2022/06/27 00:50:59;;;;;;;;;;;18.00;99.90;;;;;;5091305;28;20127;-69
2022/06/27 00:53:28;;;;;;;;;;;18.00;99.90;;;;;;5089961;28;19939;-69
2022/06/27 00:55:55;;;;;;;;;;;18.00;99.90;;;;;;5088549;28;19931;-69
2022/06/27 00:58:22;;;;;;;;;;;18.10;99.90;;;;;;5085427;28;19980;-69
2022/06/27 01:00:48;;;;;;;;;;;18.10;99.90;;;;;;5081850;28;19928;-69
2022/06/27 01:03:15;;;;;;;;;;;18.10;99.90;;;;;;5091852;28;19955;-69
2022/06/27 01:05:51;;;;;;;;;;;18.20;99.90;;;;;;5090881;28;19933;-69
2022/06/27 01:08:17;;;;;;;;;;;18.10;99.90;;;;;;5097823;27;19985;-69
2022/06/27 01:10:46;;;;;;;;;;;18.20;99.90;;;;;;5080657;28;19928;-70
2022/06/27 01:13:13;;;;;;;;;;;18.20;99.90;;;;;;5091279;28;20254;-69
2022/06/27 01:15:40;;;;;;;;;;;18.20;99.90;;;;;;5090081;28;19928;-70
2022/06/27 01:18:07;;;;;;;;;;;18.30;99.90;;;;;;5088530;28;20392;-70
2022/06/27 01:20:34;;;;;;;;;;;18.30;99.90;;;;;;5079889;28;19926;-70
2022/06/27 01:23:02;;;;;;;;;;;18.40;99.90;;;;;;5069473;28;20183;-69
2022/06/27 01:25:29;;;;;;;;;;;18.40;99.90;;;;;;5087778;28;19942;-69
2022/06/27 01:27:58;;;;;;;;;;;18.40;99.90;;;;;;5086069;28;19932;-69
2022/06/27 01:30:25;;;;;;;;;;;18.40;99.90;;;;;;5083603;28;20309;-70
2022/06/27 01:32:53;;;;;;;;;;;18.40;99.90;;;;;;5089145;28;19971;-69
2022/06/27 01:35:20;;;;;;;;;;;18.40;99.90;;;;;;5078338;28;20251;-70
2022/06/27 01:37:46;;;;;;;;;;;18.50;99.90;;;;;;5069512;28;19936;-69
2022/06/27 01:40:15;;;;;;;;;;;18.40;99.90;;;;;;5089402;28;19991;-69
2022/06/27 01:42:42;;;;;;;;;;;18.40;99.90;;;;;;5088020;28;19952;-70
2022/06/27 01:45:09;;;;;;;;;;;18.40;99.90;;;;;;5088672;28;19928;-70
2022/06/27 01:47:37;;;;;;;;;;;18.40;99.90;;;;;;5080092;28;19928;-70
2022/06/27 01:50:08;;;;;;;;;;;18.40;99.90;;;;;;5089026;28;19986;-71
2022/06/27 01:52:41;;;;;;;;;;;18.30;99.90;;;;;;5088440;28;19939;-69
2022/06/27 01:55:08;;;;;;;;;;;18.30;99.90;;;;;;5093568;28;19974;-70
2022/06/27 01:57:39;;;;;;;;;;;18.30;99.90;;;;;;5076001;28;20019;-69
2022/06/27 02:00:07;;;;;;;;;;;18.30;99.90;;;;;;5109456;27;20015;-70
2022/06/27 02:03:00;;;;;;;;;;;18.30;99.90;;;;;;5072082;28;19960;-69
2022/06/27 02:05:36;;;;;;;;;;;18.30;99.90;;;;;;5068389;28;19933;-69
2022/06/27 02:08:03;;;;;;;;;;;18.30;99.90;;;;;;5068409;28;19932;-69
2022/06/27 02:10:30;;;;;;;;;;;18.30;99.90;;;;;;5068339;28;20023;-70
2022/06/27 02:12:58;;;;;;;;;;;18.20;99.90;;;;;;5072160;28;19929;-69
2022/06/27 02:15:25;;;;;;;;;;;18.20;99.90;;;;;;5073537;28;20508;-69
2022/06/27 02:17:52;;;;;;;;;;;18.00;99.90;;;;;;5070599;28;20460;-69
2022/06/27 02:20:20;;;;;;;;;;;18.20;99.90;;;;;;5082206;28;19924;-70
2022/06/27 02:22:47;;;;;;;;;;;18.20;99.90;;;;;;5089779;28;20051;-70
2022/06/27 02:25:14;;;;;;;;;;;18.20;99.90;;;;;;5090346;28;19927;-69
2022/06/27 02:27:41;;;;;;;;;;;18.30;99.90;;;;;;5118983;27;19932;-69
2022/06/27 02:30:10;;;;;;;;;;;18.30;99.90;;;;;;5088934;28;19935;-69
2022/06/27 02:32:37;;;;;;;;;;;18.30;99.90;;;;;;5088541;28;19924;-69
2022/06/27 02:35:05;;;;;;;;;;;18.30;99.90;;;;;;5088820;28;19981;-69
2022/06/27 02:37:32;;;;;;;;;;;18.40;99.90;;;;;;5089734;28;19928;-71
2022/06/27 02:39:59;;;;;;;;;;;18.40;99.90;;;;;;5084906;28;19924;-69
2022/06/27 02:42:27;;;;;;;;;;;19.60;99.90;;;;;;5078181;28;20398;-70
2022/06/27 02:44:55;;;;;;;;;;;18.30;99.90;;;;;;5085892;28;19974;-69
2022/06/27 02:47:23;;;;;;;;;;;18.40;99.90;;;;;;5088057;28;19924;-70
2022/06/27 02:49:50;;;;;;;;;;;18.30;99.90;;;;;;5087901;28;20392;-69
2022/06/27 02:52:18;;;;;;;;;;;18.40;99.90;;;;;;5087370;28;19928;-70
2022/06/27 02:54:55;;;;;;;;;;;18.30;99.90;;;;;;5087292;28;19959;-70
2022/06/27 02:57:33;;;;;;;;;;;18.30;99.90;;;;;;5086059;28;19977;-70
2022/06/27 03:00:05;;;;;;;;;;;19.40;99.90;;;;;;5090144;28;19924;-69
2022/06/27 03:02:33;;;;;;;;;;;18.30;99.90;;;;;;5099014;28;19924;-70
2022/06/27 03:05:20;;;;;;;;;;;18.30;99.90;;;;;;5095262;28;19992;-69
2022/06/27 03:07:47;;;;;;;;;;;18.30;99.90;;;;;;5106413;28;19943;-69
2022/06/27 03:10:14;;;;;;;;;;;18.30;99.90;;;;;;5085505;28;19928;-69
2022/06/27 03:12:45;;;;;;;;;;;18.30;99.90;;;;;;5085703;28;19928;-70
2022/06/27 03:15:12;;;;;;;;;;;18.30;99.90;;;;;;5089074;28;19959;-70
2022/06/27 03:17:40;;;;;;;;;;;18.30;99.90;;;;;;5093775;28;20015;-69
2022/06/27 03:20:30;;;;;;;;;;;18.30;99.90;;;;;;5097036;28;20048;-70
2022/06/27 03:23:09;;;;;;;;;;;19.30;99.90;;;;;;5067951;28;19935;-71
2022/06/27 03:25:42;;;;;;;;;;;18.30;99.90;;;;;;5080968;28;19938;-69
2022/06/27 03:28:10;;;;;;;;;;;18.30;99.90;;;;;;5099504;28;19924;-69
2022/06/27 03:30:37;;;;;;;;;;;18.30;99.90;;;;;;5086720;28;19928;-69
2022/06/27 03:33:05;;;;;;;;;;;18.30;99.90;;;;;;5086741;28;19966;-70
2022/06/27 03:35:40;;;;;;;;;;;18.30;99.90;;;;;;5087015;28;19928;-69
2022/06/27 03:38:09;;;;;;;;;;;18.20;99.90;;;;;;5088466;28;19927;-70
2022/06/27 03:40:36;;;;;;;;;;;18.20;99.90;;;;;;5107616;28;20397;-70
2022/06/27 03:43:03;;;;;;;;;;;18.20;99.90;;;;;;5108579;28;20425;-70
2022/06/27 03:45:30;;;;;;;;;;;18.30;99.90;;;;;;5095965;28;20029;-70
2022/06/27 03:47:58;;;;;;;;;;;18.30;99.90;;;;;;5090374;28;19924;-70
2022/06/27 03:50:32;;;;;;;;;;;18.30;99.90;;;;;;5086233;28;19928;-69
2022/06/27 03:52:59;;;;;;;;;;;18.30;99.90;;;;;;5092251;28;20037;-69
2022/06/27 03:55:26;;;;;;;;;;;18.30;99.90;;;;;;5078906;28;20412;-70
2022/06/27 03:57:53;;;;;;;;;;;18.20;99.90;;;;;;5107681;27;19962;-69
2022/06/27 04:00:21;;;;;;;;;;;18.10;99.90;;;;;;5082396;28;20017;-70
2022/06/27 04:02:51;;;;;;;;;;;18.00;99.90;;;;;;5110067;27;20065;-71
2022/06/27 04:05:27;;;;;;;;;;;19.50;99.90;;;;;;5084895;28;20030;-71
2022/06/27 04:07:55;;;;;;;;;;;17.90;99.90;;;;;;5074061;28;19928;-71
2022/06/27 04:10:22;;;;;;;;;;;17.80;99.90;;;;;;5068974;28;19924;-70
2022/06/27 04:12:49;;;;;;;;;;;17.80;99.90;;;;;;5084098;28;19928;-70
2022/06/27 04:15:39;;;;;;;;;;;17.70;99.90;;;;;;5101547;28;20524;-70
2022/06/27 04:18:24;;;;;;;;;;;17.60;99.90;;;;;;5099592;28;19935;-70
2022/06/27 04:21:00;;;;;;;;;;;17.50;99.90;;;;;;5109787;27;19959;-69
2022/06/27 04:23:43;;;;;;;;;;;17.40;99.90;;;;;;5105905;28;19928;-69
2022/06/27 04:26:30;;;;;;;;;;;17.40;99.90;;;;;;5089032;28;20157;-69
2022/06/27 04:28:56;;;;;;;;;;;17.40;99.90;;;;;;5099632;28;19975;-70
2022/06/27 04:31:25;;;;;;;;;;;17.40;99.90;;;;;;5082171;28;20462;-70
2022/06/27 04:33:52;;;;;;;;;;;17.30;99.90;;;;;;5092733;28;19928;-70
2022/06/27 04:36:19;;;;;;;;;;;17.40;99.90;;;;;;5092899;28;19924;-70
2022/06/27 04:38:47;;;;;;;;;;;17.30;99.90;;;;;;5091698;28;19951;-70
2022/06/27 04:41:13;;;;;;;;;;;17.40;99.90;;;;;;5093560;28;19928;-70
2022/06/27 04:43:45;;;;;;;;;;;17.40;99.90;;;;;;5084491;28;20004;-70
2022/06/27 04:46:12;;;;;;;;;;;18.00;99.90;;;;;;5089567;28;19996;-70
2022/06/27 04:49:01;;;;;;;;;;;18.20;99.90;;;;;;5102196;28;19923;-70
2022/06/27 04:51:29;;;;;;;;;;;17.60;99.90;;;;;;5095388;28;19989;-71
2022/06/27 04:53:58;;;;;;;;;;;17.70;99.90;;;;;;5088817;28;20326;-70
2022/06/27 04:56:25;;;;;;;;;;;17.80;99.90;;;;;;5084839;28;19928;-70
2022/06/27 04:58:52;;;;;;;;;;;17.80;99.90;;;;;;5073735;28;19928;-69
2022/06/27 05:01:19;;;;;;;;;;;17.80;99.90;;;;;;5073939;28;19938;-70
2022/06/27 05:03:53;;;;;;;;;;;17.90;99.90;;;;;;5081009;28;19996;-69
2022/06/27 05:06:25;;;;;;;;;;;17.90;99.90;;;;;;5094250;28;20367;-69
2022/06/27 05:08:53;;;;;;;;;;;18.00;99.90;;;;;;5092842;28;19934;-70
2022/06/27 05:11:22;;;;;;;;;;;18.10;99.90;;;;;;5084800;28;19986;-70
2022/06/27 05:13:49;;;;;;;;;;;18.20;99.90;;;;;;5073110;28;19978;-69
2022/06/27 05:16:39;;;;;;;;;;;18.90;99.90;;;;;;5079477;28;20061;-72
2022/06/27 05:19:06;;;;;;;;;;;18.30;99.90;;;;;;5094728;28;20376;-70
2022/06/27 05:21:33;;;;;;;;;;;18.40;99.90;;;;;;5090569;28;19931;-73
2022/06/27 05:24:01;;;;;;;;;;;18.60;99.90;;;;;;5093136;28;19934;-70
2022/06/27 05:26:29;;;;;;;;;;;18.60;99.90;;;;;;5094507;28;19931;-69
2022/06/27 05:28:56;;;;;;;;;;;18.70;99.90;;;;;;5090287;28;20473;-69
2022/06/27 05:31:23;;;;;;;;;;;18.80;99.90;;;;;;5087934;28;19981;-70
2022/06/27 05:33:50;;;;;;;;;;;19.00;99.90;;;;;;5124455;27;19924;-71
2022/06/27 05:36:16;;;;;;;;;;;19.00;99.90;;;;;;5090493;28;20006;-70
2022/06/27 05:38:43;;;;;;;;;;;19.20;99.90;;;;;;5089887;28;20006;-70
2022/06/27 05:41:10;;;;;;;;;;;19.40;99.90;;;;;;5089224;28;19924;-71
2022/06/27 05:43:39;;;;;;;;;;;19.50;99.90;;;;;;5089538;28;19992;-70
2022/06/27 05:46:06;;;;;;;;;;;19.50;99.90;;;;;;5090868;28;19932;-72
2022/06/27 05:48:51;;;;;;;;;;;19.70;99.90;;;;;;5091954;28;20000;-70
2022/06/27 05:51:37;;;;;;;;;;;19.80;99.90;;;;;;5090554;28;19939;-69
2022/06/27 05:54:08;;;;;;;;;;;20.00;99.90;;;;;;5122138;27;19931;-69
2022/06/27 05:56:36;;;;;;;;;;;20.00;99.90;;;;;;5083296;28;19964;-69
2022/06/27 05:59:06;;;;;;;;;;;20.00;99.90;;;;;;5089766;28;20022;-70
2022/06/27 06:01:36;;;;;;;;;;;20.00;99.90;;;;;;5080889;28;19925;-70
2022/06/27 06:04:03;;;;;;;;;;;20.10;99.90;;;;;;5089057;28;20316;-70
2022/06/27 06:06:32;;;;;;;;;;;19.80;99.90;;;;;;5122883;27;20286;-70
2022/06/27 06:09:01;;;;;;;;;;;19.60;99.90;;;;;;5073503;28;19935;-71
2022/06/27 06:11:28;;;;;;;;;;;19.60;99.90;;;;;;5068687;28;19932;-72
2022/06/27 06:13:55;;;;;;;;;;;19.50;99.90;;;;;;5088029;28;20001;-73
2022/06/27 06:16:24;;;;;;;;;;;19.50;99.90;;;;;;5088750;28;20010;-73
2022/06/27 06:18:52;;;;;;;;;;;19.50;99.90;;;;;;5088987;28;19928;-71
2022/06/27 06:21:19;;;;;;;;;;;19.50;99.90;;;;;;5087725;28;19928;-71
2022/06/27 06:23:46;;;;;;;;;;;19.70;99.90;;;;;;5088980;28;19928;-73
2022/06/27 06:26:16;;;;;;;;;;;19.70;99.90;;;;;;5087918;28;19927;-73
2022/06/27 06:28:43;;;;;;;;;;;19.90;99.90;;;;;;5114851;27;19928;-74
2022/06/27 06:31:10;;;;;;;;;;;20.00;99.90;;;;;;5067148;28;19964;-71
2022/06/27 06:33:39;;;;;;;;;;;20.20;99.90;;;;;;5067053;28;19936;-71
2022/06/27 06:36:07;;;;;;;;;;;20.40;99.90;;;;;;5070509;28;19928;-71
2022/06/27 06:38:35;;;;;;;;;;;20.60;99.90;;;;;;5087034;28;19931;-71
2022/06/27 06:41:02;;;;;;;;;;;20.70;99.90;;;;;;5101175;27;19924;-71
2022/06/27 06:43:28;;;;;;;;;;;20.90;99.90;;;;;;5067967;28;19939;-69
2022/06/27 06:46:14;;;;;;;;;;;21.10;99.90;;;;;;5068902;28;19973;-71
2022/06/27 06:48:49;;;;;;;;;;;21.20;99.90;;;;;;5066988;28;20290;-71
2022/06/27 06:51:16;;;;;;;;;;;21.30;99.90;;;;;;5066681;28;19928;-71
2022/06/27 06:53:43;;;;;;;;;;;;;;;;;;5077287;28;19988;-70
2022/06/27 06:56:10;;;;;;;;;;;21.20;99.90;;;;;;5084379;28;19983;-69
2022/06/27 06:58:37;;;;;;;;;;;21.20;99.90;;;;;;5069149;28;19929;-70
2022/06/27 07:01:05;;;;;;;;;;;21.20;99.90;;;;;;5066792;28;19939;-70
2022/06/27 07:03:33;;;;;;;;;;;21.20;99.90;;;;;;5077769;28;20048;-71
2022/06/27 07:06:02;;;;;;;;;;;21.20;99.90;;;;;;5120982;27;19950;-70
2022/06/27 07:08:30;;;;;;;;;;;21.20;99.90;;;;;;5087344;28;20030;-70
2022/06/27 07:10:57;;;;;;;;;;;21.30;99.90;;;;;;5086786;28;19973;-70
2022/06/27 07:13:24;;;;;;;;;;;21.40;99.90;;;;;;5089016;28;20019;-70
2022/06/27 07:15:51;;;;;;;;;;;21.50;99.90;;;;;;5087310;28;19939;-70
2022/06/27 07:18:18;;;;;;;;;;;21.70;99.90;;;;;;5082015;28;19924;-70
2022/06/27 07:20:45;;;;;;;;;;;21.90;99.90;;;;;;5115580;27;19928;-70
2022/06/27 07:23:13;;;;;;;;;;;22.10;99.90;;;;;;5099640;28;19927;-69
2022/06/27 07:25:40;;;;;;;;;;;22.30;99.90;;;;;;5092954;28;20503;-70
2022/06/27 07:28:08;;;;;;;;;;;22.40;99.90;;;;;;5103276;28;20048;-70
2022/06/27 07:30:35;;;;;;;;;;;22.60;99.90;;;;;;5094298;28;19928;-71
2022/06/27 07:33:02;;;;;;;;;;;22.60;99.90;;;;;;5090322;28;19954;-70
2022/06/27 07:35:29;;;;;;;;;;;22.50;99.90;;;;;;5089815;28;20015;-70
2022/06/27 07:37:55;;;;;;;;;;;22.40;99.90;;;;;;5094000;28;20433;-70
2022/06/27 07:40:24;;;;;;;;;;;22.30;99.90;;;;;;5098940;28;20389;-70
2022/06/27 07:42:52;;;;;;;;;;;22.30;99.90;;;;;;5099086;28;19974;-70
2022/06/27 07:45:19;;;;;;;;;;;22.40;99.90;;;;;;5108551;28;20436;-70
2022/06/27 07:47:47;;;;;;;;;;;23.00;99.90;;;;;;5109507;28;20282;-70
2022/06/27 07:50:36;;;;;;;;;;;22.40;99.90;;;;;;5095392;28;19936;-71
2022/06/27 07:53:14;;;;;;;;;;;22.30;99.90;;;;;;5075959;28;19968;-70
2022/06/27 07:55:43;;;;;;;;;;;22.30;99.90;;;;;;5086975;28;19928;-70
2022/06/27 07:58:14;;;;;;;;;;;22.30;99.90;;;;;;5069229;28;19952;-70
2022/06/27 08:00:41;;;;;;;;;;;22.50;99.90;;;;;;5069786;28;19936;-71
2022/06/27 08:05:49;;;;;;;;;;;23.00;99.90;;;;;;5065695;28;20451;-70
2022/06/27 08:08:15;;;;;;;;;;;23.20;99.90;;;;;;5072341;28;19950;-71
2022/06/27 08:10:44;;;;;;;;;;;23.40;99.90;;;;;;5087570;28;19928;-70
2022/06/27 08:13:10;;;;;;;;;;;23.60;99.90;;;;;;5088004;28;20416;-70
2022/06/27 08:15:37;;;;;;;;;;;23.50;99.90;;;;;;5086097;28;19960;-70
2022/06/27 08:18:04;;;;;;;;;;;23.50;99.90;;;;;;5088079;28;19928;-70
2022/06/27 08:20:32;;;;;;;;;;;23.30;99.90;;;;;;5088280;28;19924;-70
2022/06/27 08:22:59;;;;;;;;;;;23.10;99.90;;;;;;5087248;28;19928;-70
2022/06/27 08:25:26;;;;;;;;;;;22.90;99.90;;;;;;5087953;28;19936;-70
2022/06/27 08:27:54;;;;;;;;;;;22.70;99.90;;;;;;5069577;28;19929;-70
2022/06/27 08:30:25;;;;;;;;;;;22.60;99.90;;;;;;5081178;28;19928;-72
2022/06/27 08:32:55;;;;;;;;;;;22.40;99.90;;;;;;5079221;28;19928;-73
2022/06/27 08:35:22;;;;;;;;;;;22.30;99.90;;;;;;5087527;28;20015;-74
2022/06/27 08:37:49;;;;;;;;;;;22.30;99.90;;;;;;5085621;28;20031;-73
2022/06/27 08:40:17;;;;;;;;;;;22.10;99.90;;;;;;5085071;28;19928;-75
2022/06/27 08:42:44;;;;;;;;;;;22.30;99.90;;;;;;5086433;28;19931;-74
2022/06/27 08:45:15;;;;;;;;;;;22.00;99.90;;;;;;5086092;28;19928;-73
2022/06/27 08:47:42;;;;;;;;;;;22.00;99.90;;;;;;5089249;28;19939;-72
2022/06/27 08:50:09;;;;;;;;;;;21.90;99.90;;;;;;5083674;28;19975;-73
2022/06/27 08:52:39;;;;;;;;;;;21.90;99.90;;;;;;5074474;28;20011;-74
2022/06/27 08:55:07;;;;;;;;;;;21.90;99.90;;;;;;5078522;28;19990;-72
2022/06/27 08:57:36;;;;;;;;;;;21.90;99.90;;;;;;5073037;28;19951;-72
2022/06/27 09:00:06;;;;;;;;;;;21.80;99.90;;;;;;5096235;28;20031;-73
2022/06/27 09:02:41;;;;;;;;;;;22.00;99.90;;;;;;5094747;28;19950;-73
2022/06/27 09:05:15;;;;;;;;;;;22.20;99.90;;;;;;5092220;28;19924;-72
2022/06/27 09:07:49;;;;;;;;;;;22.40;99.90;;;;;;5108409;28;19951;-72
2022/06/27 09:10:26;;;;;;;;;;;22.80;99.90;;;;;;5078302;28;20141;-72
2022/06/27 09:12:58;;;;;;;;;;;22.70;99.90;;;;;;5097212;28;19928;-75
2022/06/27 09:15:26;;;;;;;;;;;22.90;99.90;;;;;;5107432;28;19963;-72
2022/06/27 09:18:01;;;;;;;;;;;23.00;99.90;;;;;;5116745;28;20490;-72
2022/06/27 09:20:46;;;;;;;;;;;23.00;99.90;;;;;;5104446;28;20385;-72
2022/06/27 09:23:29;;;;;;;;;;;23.10;99.90;;;;;;5091849;28;19977;-73
2022/06/27 09:26:00;;;;;;;;;;;23.10;99.90;;;;;;5089942;28;19934;-72
2022/06/27 09:28:43;;;;;;;;;;;23.20;99.90;;;;;;5090908;28;20213;-72
2022/06/27 09:31:12;;;;;;;;;;;23.20;99.90;;;;;;5092074;28;19932;-72
2022/06/27 09:33:41;;;;;;;;;;;23.30;99.90;;;;;;5091178;28;20424;-72
2022/06/27 09:36:11;;;;;;;;;;;23.30;99.90;;;;;;5091101;28;19951;-73
2022/06/27 09:38:42;;;;;;;;;;;23.40;99.90;;;;;;5090505;28;20346;-73
2022/06/27 09:41:10;;;;;;;;;;;23.50;99.90;;;;;;5090833;28;19924;-73
2022/06/27 09:43:40;;;;;;;;;;;23.50;99.90;;;;;;5090880;28;20317;-73
2022/06/27 09:46:08;;;;;;;;;;;23.60;99.90;;;;;;5088736;28;19928;-73
2022/06/27 09:48:37;;;;;;;;;;;23.60;99.90;;;;;;5090782;28;19924;-72
2022/06/27 09:51:05;;;;;;;;;;;23.50;99.90;;;;;;5091164;28;19932;-73
2022/06/27 09:53:32;;;;;;;;;;;23.70;99.90;;;;;;5090373;28;19935;-74
2022/06/27 09:56:01;;;;;;;;;;;24.00;99.90;;;;;;5079500;28;19931;-74
2022/06/27 09:58:29;;;;;;;;;;;24.40;99.90;;;;;;5070220;28;20262;-73
2022/06/27 10:00:55;;;;;;;;;;;24.80;99.90;;;;;;5088467;28;19928;-74
2022/06/27 10:03:23;;;;;;;;;;;25.30;99.90;;;;;;5076723;28;19940;-74
2022/06/27 10:05:50;;;;;;;;;;;25.70;99.90;;;;;;5089550;28;19939;-76
2022/06/27 10:08:19;;;;;;;;;;;26.10;99.90;;;;;;5093632;28;19971;-73
2022/06/27 10:11:06;;;;;;;;;;;26.40;99.90;;;;;;5092035;28;20550;-72
2022/06/27 10:13:33;;;;;;;;;;;26.40;99.90;;;;;;5093789;28;20282;-73
2022/06/27 10:16:06;;;;;;;;;;;26.70;99.90;;;;;;5090163;28;20389;-71
2022/06/27 10:18:47;;;;;;;;;;;26.70;99.90;;;;;;5085986;28;19932;-72
2022/06/27 10:21:35;;;;;;;;;;;26.60;99.90;;;;;;5069248;28;20303;-72
2022/06/27 10:24:21;;;;;;;;;;;26.70;99.90;;;;;;5087495;28;19935;-71
2022/06/27 10:26:50;;;;;;;;;;;26.70;99.90;;;;;;5079929;28;19928;-72
2022/06/27 10:29:44;;;;;;;;;;;26.70;99.90;;;;;;5081350;28;20285;-71
2022/06/27 10:32:30;;;;;;;;;;;26.60;99.90;;;;;;5067623;28;19935;-71
2022/06/27 10:35:06;;;;;;;;;;;26.30;99.90;;;;;;5090284;28;20320;-70
2022/06/27 10:37:37;;;;;;;;;;;26.10;99.90;;;;;;5089263;28;19924;-71
2022/06/27 10:40:18;;;;;;;;;;;25.90;99.90;;;;;;5083071;28;19928;-70
2022/06/27 10:42:50;;;;;;;;;;;25.70;99.90;;;;;;5066126;28;19936;-70
2022/06/27 10:45:23;;;;;;;;;;;25.30;99.90;;;;;;5070509;28;19936;-71
2022/06/27 10:47:50;;;;;;;;;;;25.10;99.90;;;;;;5089841;28;19924;-70
2022/06/27 10:50:17;;;;;;;;;;;25.00;99.90;;;;;;5089045;28;19928;-70
2022/06/27 10:52:45;;;;;;;;;;;24.80;99.90;;;;;;5086525;28;19924;-72
2022/06/27 10:55:21;;;;;;;;;;;24.70;99.90;;;;;;5089759;28;19924;-73
2022/06/27 10:57:48;;;;;;;;;;;24.60;99.90;;;;;;5087632;28;20393;-73
2022/06/27 11:00:48;;;;;;;;;;;24.50;99.90;;;;;;5087761;28;20019;-75
2022/06/27 11:03:27;;;;;;;;;;;24.30;99.90;;;;;;5077721;28;19929;-74
2022/06/27 11:05:56;;;;;;;;;;;24.10;99.90;;;;;;5111010;27;19947;-72
2022/06/27 11:08:23;;;;;;;;;;;23.90;99.90;;;;;;5070424;28;19925;-74
2022/06/27 11:10:51;;;;;;;;;;;23.80;99.90;;;;;;5086490;28;20356;-73
2022/06/27 11:13:37;;;;;;;;;;;23.80;99.90;;;;;;5087961;28;20251;-73
2022/06/27 11:16:04;;;;;;;;;;;23.80;99.90;;;;;;5092348;28;19950;-73
2022/06/27 11:18:41;;;;;;;;;;;23.90;99.90;;;;;;5094485;28;19935;-73
2022/06/27 11:21:09;;;;;;;;;;;24.10;99.90;;;;;;5086472;28;19998;-73
2022/06/27 11:23:47;;;;;;;;;;;24.20;99.90;;;;;;5087811;28;19935;-74
2022/06/27 11:26:14;;;;;;;;;;;24.30;99.90;;;;;;5082972;28;19932;-74
2022/06/27 11:34:09;;;;;;;;;;;24.50;99.90;;;;;;5063777;28;20301;-74
2022/06/27 11:36:36;;;;;;;;;;;24.70;99.90;;;;;;5080989;28;20281;-74
2022/06/27 11:39:03;;;;;;;;;;;24.80;99.90;;;;;;5092085;28;19946;-72
2022/06/27 11:41:30;;;;;;;;;;;24.90;99.90;;;;;;5090870;28;19950;-73
2022/06/27 11:43:58;;;;;;;;;;;25.10;99.90;;;;;;5092154;28;19928;-73
2022/06/27 11:46:26;;;;;;;;;;;25.20;99.90;;;;;;5093881;28;20511;-72
2022/06/27 11:48:57;;;;;;;;;;;25.20;99.90;;;;;;5093130;28;19928;-75
2022/06/27 11:51:29;;;;;;;;;;;25.20;99.90;;;;;;5095672;28;19975;-73
2022/06/27 11:53:57;;;;;;;;;;;25.30;99.90;;;;;;5091456;28;20015;-73
2022/06/27 11:56:25;;;;;;;;;;;25.30;99.90;;;;;;5091464;28;19928;-76
2022/06/27 11:58:52;;;;;;;;;;;25.50;99.90;;;;;;5082972;28;19928;-72
2022/06/27 12:01:19;;;;;;;;;;;25.20;99.90;;;;;;5088117;28;19924;-73
2022/06/27 12:04:04;;;;;;;;;;;25.90;99.90;;;;;;5097100;28;19935;-74
2022/06/27 12:06:32;;;;;;;;;;;25.90;99.90;;;;;;5094419;28;19928;-70
2022/06/27 12:09:01;;;;;;;;;;;26.20;99.90;;;;;;5101067;28;19934;-71
2022/06/27 12:11:29;;;;;;;;;;;26.50;99.90;;;;;;5098886;28;19969;-71
2022/06/27 12:13:59;;;;;;;;;;;26.90;99.90;;;;;;5087081;28;19931;-71
2022/06/27 12:16:26;;;;;;;;;;;26.90;99.90;;;;;;5084479;28;19924;-70
2022/06/27 12:18:53;;;;;;;;;;;27.10;99.90;;;;;;5093263;28;20296;-70
2022/06/27 12:21:20;;;;;;;;;;;27.30;99.90;;;;;;5097274;28;20009;-71
2022/06/27 12:23:48;;;;;;;;;;;27.40;99.90;;;;;;5097636;28;19949;-70
2022/06/27 12:26:16;;;;;;;;;;;27.40;99.90;;;;;;5093314;28;20408;-71
2022/06/27 12:28:42;;;;;;;;;;;27.30;99.90;;;;;;5089673;28;19928;-71
2022/06/27 12:31:10;;;;;;;;;;;27.10;99.90;;;;;;5087775;28;19928;-71
2022/06/27 12:33:37;;;;;;;;;;;26.80;99.90;;;;;;5094426;28;19935;-71
2022/06/27 12:36:04;;;;;;;;;;;26.60;99.90;;;;;;5084347;28;19928;-71
2022/06/27 12:38:30;;;;;;;;;;;26.40;99.90;;;;;;5084192;28;19928;-71
2022/06/27 12:41:12;;;;;;;;;;;26.30;99.90;;;;;;5072330;28;20410;-71
2022/06/27 12:43:39;;;;;;;;;;;26.10;99.90;;;;;;5080308;28;19943;-71
2022/06/27 12:46:05;;;;;;;;;;;26.20;99.90;;;;;;5092804;28;19927;-71
2022/06/27 12:48:32;;;;;;;;;;;26.40;99.90;;;;;;5098645;28;19973;-71
2022/06/27 12:50:59;;;;;;;;;;;26.80;99.90;;;;;;5102833;28;19927;-70
2022/06/27 12:53:26;;;;;;;;;;;27.00;99.90;;;;;;5112713;28;19945;-71
2022/06/27 12:55:53;;;;;;;;;;;27.30;99.90;;;;;;5089842;28;19981;-71
2022/06/27 12:58:21;;;;;;;;;;;27.60;99.90;;;;;;5071588;28;19968;-71
2022/06/27 13:00:48;;;;;;;;;;;27.60;99.90;;;;;;5069866;28;19924;-71
2022/06/27 13:03:15;;;;;;;;;;;27.60;99.90;;;;;;5075007;28;19928;-71
2022/06/27 13:05:42;;;;;;;;;;;27.60;99.90;;;;;;5100040;28;20327;-71
2022/06/27 13:08:08;;;;;;;;;;;27.60;99.90;;;;;;5094645;28;19931;-71
2022/06/27 13:10:35;;;;;;;;;;;27.70;99.90;;;;;;5091344;28;19997;-71
2022/06/27 13:13:02;;;;;;;;;;;27.90;99.90;;;;;;5091372;28;20290;-71
2022/06/27 13:15:32;;;;;;;;;;;28.20;99.90;;;;;;5091715;28;19932;-71
2022/06/27 13:17:58;;;;;;;;;;;28.30;99.90;;;;;;5086347;28;19979;-71
2022/06/27 13:20:26;;;;;;;;;;;28.40;99.90;;;;;;5089507;28;20363;-71
2022/06/27 13:22:53;;;;;;;;;;;28.50;99.90;;;;;;5085860;28;19929;-71
2022/06/27 13:25:20;;;;;;;;;;;28.60;99.90;;;;;;5096723;28;20254;-71
2022/06/27 13:27:47;;;;;;;;;;;28.70;99.90;;;;;;5101824;28;19928;-71
2022/06/27 13:30:14;;;;;;;;;;;28.90;99.90;;;;;;5089824;28;20228;-72
2022/06/27 13:32:42;;;;;;;;;;;29.30;99.90;;;;;;5091093;28;20369;-71
2022/06/27 13:35:09;;;;;;;;;;;29.60;99.90;;;;;;5097077;28;19928;-71
2022/06/27 13:37:35;;;;;;;;;;;29.50;99.90;;;;;;5092906;28;19939;-70
2022/06/27 13:40:02;;;;;;;;;;;29.30;99.90;;;;;;5099709;28;19928;-70
2022/06/27 13:42:29;;;;;;;;;;;29.20;99.90;;;;;;5086797;28;19924;-70
2022/06/27 13:44:56;;;;;;;;;;;29.10;99.90;;;;;;5091205;28;19928;-70
2022/06/27 13:47:22;;;;;;;;;;;29.00;99.90;;;;;;5090683;28;19928;-70
2022/06/27 13:49:51;;;;;;;;;;;28.60;99.90;;;;;;5090580;28;20011;-70
2022/06/27 13:52:17;;;;;;;;;;;28.30;99.90;;;;;;5101167;28;19927;-72
2022/06/27 13:54:44;;;;;;;;;;;28.20;99.90;;;;;;5090384;28;19999;-70
2022/06/27 13:57:11;;;;;;;;;;;28.20;99.90;;;;;;5078290;28;19924;-71
2022/06/27 13:59:38;;;;;;;;;;;28.20;99.90;;;;;;5071062;28;19928;-70
2022/06/27 14:02:05;;;;;;;;;;;28.30;99.90;;;;;;5079472;28;19950;-70
2022/06/27 14:04:32;;;;;;;;;;;28.50;99.90;;;;;;5090741;28;19924;-70
2022/06/27 14:09:44;;;;;;;;;;;28.40;99.90;;;;;;5080746;28;20396;-70
2022/06/27 14:12:11;;;;;;;;;;;28.40;99.90;;;;;;5074314;28;19928;-70
2022/06/27 14:14:37;;;;;;;;;;;28.40;99.90;;;;;;5082503;28;19928;-70
2022/06/27 14:17:04;;;;;;;;;;;28.30;99.90;;;;;;5091761;28;20630;-70
2022/06/27 14:19:31;;;;;;;;;;;28.20;99.90;;;;;;5084655;28;19935;-70
2022/06/27 14:21:57;;;;;;;;;;;28.20;99.90;;;;;;5071475;28;19974;-71
2022/06/27 14:24:25;;;;;;;;;;;28.20;99.90;;;;;;5086321;28;20290;-71
2022/06/27 14:26:52;;;;;;;;;;;28.20;99.90;;;;;;5087895;28;19936;-71
2022/06/27 14:29:19;;;;;;;;;;;28.00;99.90;;;;;;5088727;28;19935;-71
2022/06/27 14:31:46;;;;;;;;;;;27.70;99.90;;;;;;5089320;28;19931;-71
2022/06/27 14:34:12;;;;;;;;;;;27.50;99.90;;;;;;5086195;28;20007;-71
2022/06/27 14:36:39;;;;;;;;;;;27.20;99.90;;;;;;5087698;28;19935;-71
2022/06/27 14:39:06;;;;;;;;;;;26.70;99.90;;;;;;5086696;28;20463;-71
2022/06/27 14:41:35;;;;;;;;;;;25.70;99.90;;;;;;5087665;28;20494;-71
2022/06/27 14:44:01;;;;;;;;;;;23.70;99.90;;;;;;5088405;28;20019;-70